sensor_id;sensor_type;location;lat;lon;timestamp;temperature;humidity
75500;DHT22;64076;51.466;7.260;2024-02-23T00:01:31;25.70;35.70
75500;DHT22;64076;51.466;7.260;2024-02-23T00:03:57;25.70;35.70
75500;DHT22;64076;51.466;7.260;2024-02-23T00:06:25;25.70;35.70
75500;DHT22;64076;51.466;7.260;2024-02-23T00:08:53;25.70;35.70
75500;DHT22;64076;51.466;7.260;2024-02-23T00:11:20;25.70;35.70
75500;DHT22;64076;51.466;7.260;2024-02-23T00:13:46;25.70;35.70
75500;DHT22;64076;51.466;7.260;2024-02-23T00:16:11;25.70;35.70
75500;DHT22;64076;51.466;7.260;2024-02-23T00:18:37;25.70;35.70
75500;DHT22;64076;51.466;7.260;2024-02-23T00:21:03;25.70;35.60
75500;DHT22;64076;51.466;7.260;2024-02-23T00:23:29;25.70;35.60
75500;DHT22;64076;51.466;7.260;2024-02-23T00:25:54;25.70;35.70
75500;DHT22;64076;51.466;7.260;2024-02-23T00:28:20;25.70;35.60
75500;DHT22;64076;51.466;7.260;2024-02-23T00:30:45;25.70;35.60
75500;DHT22;64076;51.466;7.260;2024-02-23T00:33:11;25.70;35.60
75500;DHT22;64076;51.466;7.260;2024-02-23T00:35:36;25.70;35.60
75500;DHT22;64076;51.466;7.260;2024-02-23T00:38:02;25.70;35.60
75500;DHT22;64076;51.466;7.260;2024-02-23T00:40:27;25.70;35.60
75500;DHT22;64076;51.466;7.260;2024-02-23T00:42:53;25.70;35.50
75500;DHT22;64076;51.466;7.260;2024-02-23T00:45:19;25.70;35.50
75500;DHT22;64076;51.466;7.260;2024-02-23T00:47:45;25.70;35.50
75500;DHT22;64076;51.466;7.260;2024-02-23T00:50:12;25.70;35.50
75500;DHT22;64076;51.466;7.260;2024-02-23T00:52:38;25.70;35.40
75500;DHT22;64076;51.466;7.260;2024-02-23T00:55:04;25.70;35.40
75500;DHT22;64076;51.466;7.260;2024-02-23T00:57:30;25.70;35.30
75500;DHT22;64076;51.466;7.260;2024-02-23T00:59:56;25.70;35.40
75500;DHT22;64076;51.466;7.260;2024-02-23T01:02:22;25.70;35.30
75500;DHT22;64076;51.466;7.260;2024-02-23T01:04:48;25.70;35.30
75500;DHT22;64076;51.466;7.260;2024-02-23T01:07:13;25.70;35.30
75500;DHT22;64076;51.466;7.260;2024-02-23T01:09:39;25.70;35.20
75500;DHT22;64076;51.466;7.260;2024-02-23T01:12:04;25.70;35.20
75500;DHT22;64076;51.466;7.260;2024-02-23T01:14:30;25.70;35.20
75500;DHT22;64076;51.466;7.260;2024-02-23T01:16:56;25.70;35.10
75500;DHT22;64076;51.466;7.260;2024-02-23T01:19:22;25.70;35.20
75500;DHT22;64076;51.466;7.260;2024-02-23T01:21:49;25.70;35.20
75500;DHT22;64076;51.466;7.260;2024-02-23T01:24:17;25.70;35.10
75500;DHT22;64076;51.466;7.260;2024-02-23T01:26:42;25.70;35.10
75500;DHT22;64076;51.466;7.260;2024-02-23T01:29:08;25.70;35.00
75500;DHT22;64076;51.466;7.260;2024-02-23T01:31:33;25.70;34.90
75500;DHT22;64076;51.466;7.260;2024-02-23T01:33:59;25.70;34.90
75500;DHT22;64076;51.466;7.260;2024-02-23T01:36:24;25.70;34.90
75500;DHT22;64076;51.466;7.260;2024-02-23T01:38:50;25.70;34.80
75500;DHT22;64076;51.466;7.260;2024-02-23T01:41:15;25.60;34.80
75500;DHT22;64076;51.466;7.260;2024-02-23T01:43:41;25.60;34.80
75500;DHT22;64076;51.466;7.260;2024-02-23T01:46:07;25.60;34.80
75500;DHT22;64076;51.466;7.260;2024-02-23T01:48:33;25.60;34.80
75500;DHT22;64076;51.466;7.260;2024-02-23T01:50:58;25.60;34.70
75500;DHT22;64076;51.466;7.260;2024-02-23T01:53:24;25.60;34.70
75500;DHT22;64076;51.466;7.260;2024-02-23T01:55:51;25.60;34.60
75500;DHT22;64076;51.466;7.260;2024-02-23T01:58:17;25.60;34.60
75500;DHT22;64076;51.466;7.260;2024-02-23T02:00:43;25.60;34.60
75500;DHT22;64076;51.466;7.260;2024-02-23T02:03:08;25.60;34.50
75500;DHT22;64076;51.466;7.260;2024-02-23T02:05:36;25.60;34.50
75500;DHT22;64076;51.466;7.260;2024-02-23T02:08:02;25.60;34.50
75500;DHT22;64076;51.466;7.260;2024-02-23T02:10:28;25.60;34.40
75500;DHT22;64076;51.466;7.260;2024-02-23T02:12:54;25.60;34.40
75500;DHT22;64076;51.466;7.260;2024-02-23T02:15:19;25.60;34.30
75500;DHT22;64076;51.466;7.260;2024-02-23T02:17:47;25.60;34.30
75500;DHT22;64076;51.466;7.260;2024-02-23T02:20:13;25.60;34.30
75500;DHT22;64076;51.466;7.260;2024-02-23T02:22:39;25.60;34.30
75500;DHT22;64076;51.466;7.260;2024-02-23T02:25:05;25.60;34.20
75500;DHT22;64076;51.466;7.260;2024-02-23T02:27:31;25.60;34.10
75500;DHT22;64076;51.466;7.260;2024-02-23T02:29:57;25.60;34.10
75500;DHT22;64076;51.466;7.260;2024-02-23T02:32:23;25.60;34.20
75500;DHT22;64076;51.466;7.260;2024-02-23T02:34:48;25.60;34.10
75500;DHT22;64076;51.466;7.260;2024-02-23T02:37:14;25.60;34.10
75500;DHT22;64076;51.466;7.260;2024-02-23T02:39:40;25.60;34.10
75500;DHT22;64076;51.466;7.260;2024-02-23T02:42:05;25.60;34.10
75500;DHT22;64076;51.466;7.260;2024-02-23T02:44:31;25.60;34.00
75500;DHT22;64076;51.466;7.260;2024-02-23T02:46:57;25.60;33.90
75500;DHT22;64076;51.466;7.260;2024-02-23T02:49:25;25.60;34.00
75500;DHT22;64076;51.466;7.260;2024-02-23T02:51:50;25.60;33.90
75500;DHT22;64076;51.466;7.260;2024-02-23T02:54:17;25.50;33.90
75500;DHT22;64076;51.466;7.260;2024-02-23T02:56:43;25.60;34.00
75500;DHT22;64076;51.466;7.260;2024-02-23T02:59:11;25.50;33.80
75500;DHT22;64076;51.466;7.260;2024-02-23T03:01:36;25.50;33.90
75500;DHT22;64076;51.466;7.260;2024-02-23T03:04:02;25.60;33.70
75500;DHT22;64076;51.466;7.260;2024-02-23T03:06:27;25.50;33.80
75500;DHT22;64076;51.466;7.260;2024-02-23T03:08:53;25.50;33.80
75500;DHT22;64076;51.466;7.260;2024-02-23T03:11:18;25.60;33.80
75500;DHT22;64076;51.466;7.260;2024-02-23T03:13:44;25.50;33.70
75500;DHT22;64076;51.466;7.260;2024-02-23T03:16:18;25.50;33.70
75500;DHT22;64076;51.466;7.260;2024-02-23T03:18:45;25.50;33.60
75500;DHT22;64076;51.466;7.260;2024-02-23T03:21:11;25.50;33.70
75500;DHT22;64076;51.466;7.260;2024-02-23T03:23:36;25.50;33.70
75500;DHT22;64076;51.466;7.260;2024-02-23T03:26:02;25.50;33.60
75500;DHT22;64076;51.466;7.260;2024-02-23T03:28:28;25.50;33.70
75500;DHT22;64076;51.466;7.260;2024-02-23T03:30:53;25.50;33.60
75500;DHT22;64076;51.466;7.260;2024-02-23T03:33:19;25.50;33.60
75500;DHT22;64076;51.466;7.260;2024-02-23T03:35:45;25.50;33.50
75500;DHT22;64076;51.466;7.260;2024-02-23T03:38:10;25.50;33.50
75500;DHT22;64076;51.466;7.260;2024-02-23T03:40:36;25.50;33.50
75500;DHT22;64076;51.466;7.260;2024-02-23T03:43:02;25.50;33.50
75500;DHT22;64076;51.466;7.260;2024-02-23T03:45:28;25.50;33.40
75500;DHT22;64076;51.466;7.260;2024-02-23T03:47:53;25.50;33.50
75500;DHT22;64076;51.466;7.260;2024-02-23T03:50:19;25.50;33.40
75500;DHT22;64076;51.466;7.260;2024-02-23T03:52:45;25.50;33.30
75500;DHT22;64076;51.466;7.260;2024-02-23T03:55:10;25.50;33.30
75500;DHT22;64076;51.466;7.260;2024-02-23T03:57:36;25.50;33.30
75500;DHT22;64076;51.466;7.260;2024-02-23T04:00:02;25.50;33.20
75500;DHT22;64076;51.466;7.260;2024-02-23T04:02:28;25.50;33.20
75500;DHT22;64076;51.466;7.260;2024-02-23T04:04:54;25.50;33.20
75500;DHT22;64076;51.466;7.260;2024-02-23T04:07:20;25.50;33.10
75500;DHT22;64076;51.466;7.260;2024-02-23T04:09:46;25.50;33.10
75500;DHT22;64076;51.466;7.260;2024-02-23T04:12:20;25.50;33.10
75500;DHT22;64076;51.466;7.260;2024-02-23T04:14:46;25.50;33.00
75500;DHT22;64076;51.466;7.260;2024-02-23T04:17:11;25.40;33.00
75500;DHT22;64076;51.466;7.260;2024-02-23T04:19:37;25.40;33.10
75500;DHT22;64076;51.466;7.260;2024-02-23T04:22:03;25.40;32.90
75500;DHT22;64076;51.466;7.260;2024-02-23T04:24:29;25.40;32.90
75500;DHT22;64076;51.466;7.260;2024-02-23T04:26:54;25.40;33.00
75500;DHT22;64076;51.466;7.260;2024-02-23T04:29:20;25.40;32.90
75500;DHT22;64076;51.466;7.260;2024-02-23T04:31:45;25.40;32.90
75500;DHT22;64076;51.466;7.260;2024-02-23T04:34:11;25.40;32.80
75500;DHT22;64076;51.466;7.260;2024-02-23T04:36:36;25.40;32.80
75500;DHT22;64076;51.466;7.260;2024-02-23T04:39:02;25.40;32.70
75500;DHT22;64076;51.466;7.260;2024-02-23T04:41:28;25.40;32.70
75500;DHT22;64076;51.466;7.260;2024-02-23T04:43:53;25.40;32.70
75500;DHT22;64076;51.466;7.260;2024-02-23T04:46:25;25.40;32.80
75500;DHT22;64076;51.466;7.260;2024-02-23T04:48:50;25.40;32.60
75500;DHT22;64076;51.466;7.260;2024-02-23T04:51:16;25.40;32.70
75500;DHT22;64076;51.466;7.260;2024-02-23T04:53:41;25.40;32.70
75500;DHT22;64076;51.466;7.260;2024-02-23T04:56:08;25.40;32.60
75500;DHT22;64076;51.466;7.260;2024-02-23T04:58:34;25.40;32.60
75500;DHT22;64076;51.466;7.260;2024-02-23T05:01:00;25.40;32.50
75500;DHT22;64076;51.466;7.260;2024-02-23T05:03:28;25.40;32.60
75500;DHT22;64076;51.466;7.260;2024-02-23T05:05:53;25.40;32.50
75500;DHT22;64076;51.466;7.260;2024-02-23T05:08:22;25.40;32.50
75500;DHT22;64076;51.466;7.260;2024-02-23T05:10:52;25.40;32.40
75500;DHT22;64076;51.466;7.260;2024-02-23T05:13:17;25.40;32.40
75500;DHT22;64076;51.466;7.260;2024-02-23T05:15:43;25.40;32.40
75500;DHT22;64076;51.466;7.260;2024-02-23T05:18:45;25.40;32.40
75500;DHT22;64076;51.466;7.260;2024-02-23T05:21:12;25.40;32.30
75500;DHT22;64076;51.466;7.260;2024-02-23T05:23:39;25.30;32.40
75500;DHT22;64076;51.466;7.260;2024-02-23T05:26:05;25.30;32.40
75500;DHT22;64076;51.466;7.260;2024-02-23T05:28:30;25.30;32.30
75500;DHT22;64076;51.466;7.260;2024-02-23T05:30:56;25.40;32.20
75500;DHT22;64076;51.466;7.260;2024-02-23T05:33:22;25.40;32.30
75500;DHT22;64076;51.466;7.260;2024-02-23T05:35:48;25.40;32.20
75500;DHT22;64076;51.466;7.260;2024-02-23T05:38:16;25.40;32.20
75500;DHT22;64076;51.466;7.260;2024-02-23T05:40:42;25.40;32.20
75500;DHT22;64076;51.466;7.260;2024-02-23T05:43:08;25.40;32.20
75500;DHT22;64076;51.466;7.260;2024-02-23T05:45:33;25.40;32.10
75500;DHT22;64076;51.466;7.260;2024-02-23T05:47:59;25.40;32.10
75500;DHT22;64076;51.466;7.260;2024-02-23T05:50:24;25.40;32.10
75500;DHT22;64076;51.466;7.260;2024-02-23T05:52:50;25.40;32.10
75500;DHT22;64076;51.466;7.260;2024-02-23T05:55:15;25.40;32.10
75500;DHT22;64076;51.466;7.260;2024-02-23T05:57:41;25.30;32.00
75500;DHT22;64076;51.466;7.260;2024-02-23T06:00:07;25.30;32.00
75500;DHT22;64076;51.466;7.260;2024-02-23T06:02:33;25.30;32.00
75500;DHT22;64076;51.466;7.260;2024-02-23T06:04:58;25.30;32.00
75500;DHT22;64076;51.466;7.260;2024-02-23T06:07:24;25.40;32.00
75500;DHT22;64076;51.466;7.260;2024-02-23T06:09:55;25.30;31.90
75500;DHT22;64076;51.466;7.260;2024-02-23T06:12:22;25.30;31.90
75500;DHT22;64076;51.466;7.260;2024-02-23T06:14:47;25.30;31.90
75500;DHT22;64076;51.466;7.260;2024-02-23T06:17:13;25.30;31.90
75500;DHT22;64076;51.466;7.260;2024-02-23T06:19:39;25.30;31.90
75500;DHT22;64076;51.466;7.260;2024-02-23T06:22:04;25.30;31.00
75500;DHT22;64076;51.466;7.260;2024-02-23T06:24:30;25.30;30.70
75500;DHT22;64076;51.466;7.260;2024-02-23T06:26:55;25.40;30.30
75500;DHT22;64076;51.466;7.260;2024-02-23T06:29:23;25.40;30.10
75500;DHT22;64076;51.466;7.260;2024-02-23T06:31:48;25.40;29.70
75500;DHT22;64076;51.466;7.260;2024-02-23T06:34:15;25.40;29.60
75500;DHT22;64076;51.466;7.260;2024-02-23T06:36:41;25.40;29.30
75500;DHT22;64076;51.466;7.260;2024-02-23T06:39:07;25.40;29.20
75500;DHT22;64076;51.466;7.260;2024-02-23T06:41:32;25.40;29.00
75500;DHT22;64076;51.466;7.260;2024-02-23T06:43:58;25.40;28.80
75500;DHT22;64076;51.466;7.260;2024-02-23T06:46:23;25.40;28.70
75500;DHT22;64076;51.466;7.260;2024-02-23T06:48:49;25.40;28.50
75500;DHT22;64076;51.466;7.260;2024-02-23T06:51:15;25.40;28.40
75500;DHT22;64076;51.466;7.260;2024-02-23T06:53:41;25.40;28.30
75500;DHT22;64076;51.466;7.260;2024-02-23T06:56:07;25.40;28.20
75500;DHT22;64076;51.466;7.260;2024-02-23T06:58:32;25.40;28.10
75500;DHT22;64076;51.466;7.260;2024-02-23T07:00:58;25.40;28.00
75500;DHT22;64076;51.466;7.260;2024-02-23T07:03:24;25.40;27.90
75500;DHT22;64076;51.466;7.260;2024-02-23T07:05:50;25.40;27.80
75500;DHT22;64076;51.466;7.260;2024-02-23T07:08:15;25.40;27.70
75500;DHT22;64076;51.466;7.260;2024-02-23T07:10:41;25.40;27.70
75500;DHT22;64076;51.466;7.260;2024-02-23T07:13:07;25.40;27.60
75500;DHT22;64076;51.466;7.260;2024-02-23T07:15:33;25.40;27.50
75500;DHT22;64076;51.466;7.260;2024-02-23T07:17:58;25.50;27.50
75500;DHT22;64076;51.466;7.260;2024-02-23T07:20:24;25.50;27.40
75500;DHT22;64076;51.466;7.260;2024-02-23T07:22:49;25.60;27.30
75500;DHT22;64076;51.466;7.260;2024-02-23T07:25:19;25.60;27.20
75500;DHT22;64076;51.466;7.260;2024-02-23T07:27:47;25.60;27.20
75500;DHT22;64076;51.466;7.260;2024-02-23T07:30:15;25.70;27.10
75500;DHT22;64076;51.466;7.260;2024-02-23T07:32:44;25.70;27.10
75500;DHT22;64076;51.466;7.260;2024-02-23T07:35:11;25.80;27.10
75500;DHT22;64076;51.466;7.260;2024-02-23T07:37:37;25.80;27.00
75500;DHT22;64076;51.466;7.260;2024-02-23T07:40:03;25.80;26.90
75500;DHT22;64076;51.466;7.260;2024-02-23T07:42:29;25.90;27.00
75500;DHT22;64076;51.466;7.260;2024-02-23T07:44:55;25.90;27.00
75500;DHT22;64076;51.466;7.260;2024-02-23T07:47:21;25.90;26.90
75500;DHT22;64076;51.466;7.260;2024-02-23T07:49:47;25.80;26.90
75500;DHT22;64076;51.466;7.260;2024-02-23T07:52:12;25.90;26.90
75500;DHT22;64076;51.466;7.260;2024-02-23T07:54:38;25.80;26.90
75500;DHT22;64076;51.466;7.260;2024-02-23T07:57:03;25.80;26.80
75500;DHT22;64076;51.466;7.260;2024-02-23T07:59:30;25.80;26.90
75500;DHT22;64076;51.466;7.260;2024-02-23T08:01:56;25.80;26.90
75500;DHT22;64076;51.466;7.260;2024-02-23T08:04:22;25.80;26.90
75500;DHT22;64076;51.466;7.260;2024-02-23T08:06:48;25.80;26.90
75500;DHT22;64076;51.466;7.260;2024-02-23T08:09:14;25.80;26.90
75500;DHT22;64076;51.466;7.260;2024-02-23T08:11:40;25.80;26.90
75500;DHT22;64076;51.466;7.260;2024-02-23T08:14:05;25.80;26.90
75500;DHT22;64076;51.466;7.260;2024-02-23T08:16:32;25.80;26.90
75500;DHT22;64076;51.466;7.260;2024-02-23T08:18:58;25.80;26.90
75500;DHT22;64076;51.466;7.260;2024-02-23T08:21:25;25.80;26.90
75500;DHT22;64076;51.466;7.260;2024-02-23T08:23:51;25.80;27.00
75500;DHT22;64076;51.466;7.260;2024-02-23T08:26:17;25.80;27.00
75500;DHT22;64076;51.466;7.260;2024-02-23T08:28:42;25.80;27.00
75500;DHT22;64076;51.466;7.260;2024-02-23T08:31:08;25.80;27.00
75500;DHT22;64076;51.466;7.260;2024-02-23T08:33:36;25.80;27.00
75500;DHT22;64076;51.466;7.260;2024-02-23T08:36:02;25.80;27.00
75500;DHT22;64076;51.466;7.260;2024-02-23T08:38:31;25.80;27.00
75500;DHT22;64076;51.466;7.260;2024-02-23T08:40:57;25.80;26.90
75500;DHT22;64076;51.466;7.260;2024-02-23T08:43:23;25.80;26.90
75500;DHT22;64076;51.466;7.260;2024-02-23T08:45:49;25.80;26.90
75500;DHT22;64076;51.466;7.260;2024-02-23T08:48:14;25.80;27.00
75500;DHT22;64076;51.466;7.260;2024-02-23T08:50:40;25.80;27.00
75500;DHT22;64076;51.466;7.260;2024-02-23T08:53:06;25.80;26.90
75500;DHT22;64076;51.466;7.260;2024-02-23T08:55:32;25.80;26.90
75500;DHT22;64076;51.466;7.260;2024-02-23T08:57:58;25.80;26.80
75500;DHT22;64076;51.466;7.260;2024-02-23T09:00:24;25.80;26.80
75500;DHT22;64076;51.466;7.260;2024-02-23T09:02:50;25.80;26.80
75500;DHT22;64076;51.466;7.260;2024-02-23T09:05:15;25.80;26.80
75500;DHT22;64076;51.466;7.260;2024-02-23T09:07:41;25.80;26.70
75500;DHT22;64076;51.466;7.260;2024-02-23T09:10:07;25.80;26.80
75500;DHT22;64076;51.466;7.260;2024-02-23T09:12:33;25.80;26.70
75500;DHT22;64076;51.466;7.260;2024-02-23T09:15:02;25.80;26.70
75500;DHT22;64076;51.466;7.260;2024-02-23T09:17:28;25.80;26.70
75500;DHT22;64076;51.466;7.260;2024-02-23T09:19:53;25.80;26.70
75500;DHT22;64076;51.466;7.260;2024-02-23T09:22:19;25.80;26.70
75500;DHT22;64076;51.466;7.260;2024-02-23T09:24:44;25.70;26.70
75500;DHT22;64076;51.466;7.260;2024-02-23T09:27:10;25.70;26.70
75500;DHT22;64076;51.466;7.260;2024-02-23T09:29:36;25.70;26.70
75500;DHT22;64076;51.466;7.260;2024-02-23T09:32:02;25.70;26.70
75500;DHT22;64076;51.466;7.260;2024-02-23T09:34:27;25.70;26.70
75500;DHT22;64076;51.466;7.260;2024-02-23T09:36:55;25.70;26.60
75500;DHT22;64076;51.466;7.260;2024-02-23T09:39:21;25.70;26.70
75500;DHT22;64076;51.466;7.260;2024-02-23T09:41:50;25.70;26.70
75500;DHT22;64076;51.466;7.260;2024-02-23T09:44:18;25.70;26.70
75500;DHT22;64076;51.466;7.260;2024-02-23T09:46:43;25.70;26.60
75500;DHT22;64076;51.466;7.260;2024-02-23T09:49:11;25.70;26.70
75500;DHT22;64076;51.466;7.260;2024-02-23T09:51:38;25.70;26.70
75500;DHT22;64076;51.466;7.260;2024-02-23T09:54:04;25.70;26.70
75500;DHT22;64076;51.466;7.260;2024-02-23T09:56:30;25.70;26.60
75500;DHT22;64076;51.466;7.260;2024-02-23T09:58:59;25.60;26.70
75500;DHT22;64076;51.466;7.260;2024-02-23T10:01:28;25.60;26.70
75500;DHT22;64076;51.466;7.260;2024-02-23T10:03:57;25.60;26.60
75500;DHT22;64076;51.466;7.260;2024-02-23T10:06:24;25.60;26.70
75500;DHT22;64076;51.466;7.260;2024-02-23T10:08:50;25.60;26.70
75500;DHT22;64076;51.466;7.260;2024-02-23T10:11:18;25.60;26.70
75500;DHT22;64076;51.466;7.260;2024-02-23T10:13:44;25.60;26.70
75500;DHT22;64076;51.466;7.260;2024-02-23T10:16:10;25.60;26.60
75500;DHT22;64076;51.466;7.260;2024-02-23T10:18:38;25.70;26.60
75500;DHT22;64076;51.466;7.260;2024-02-23T10:21:04;25.70;26.60
75500;DHT22;64076;51.466;7.260;2024-02-23T10:23:30;25.70;26.60
75500;DHT22;64076;51.466;7.260;2024-02-23T10:25:56;25.70;26.60
75500;DHT22;64076;51.466;7.260;2024-02-23T10:28:22;25.70;26.60
75500;DHT22;64076;51.466;7.260;2024-02-23T10:30:48;25.70;26.50
75500;DHT22;64076;51.466;7.260;2024-02-23T10:33:14;25.70;26.50
75500;DHT22;64076;51.466;7.260;2024-02-23T10:35:40;25.70;26.50
75500;DHT22;64076;51.466;7.260;2024-02-23T10:38:08;25.70;26.50
75500;DHT22;64076;51.466;7.260;2024-02-23T10:40:39;25.70;26.50
75500;DHT22;64076;51.466;7.260;2024-02-23T10:43:10;25.70;26.50
75500;DHT22;64076;51.466;7.260;2024-02-23T10:45:37;25.70;26.60
75500;DHT22;64076;51.466;7.260;2024-02-23T10:48:06;25.70;26.50
75500;DHT22;64076;51.466;7.260;2024-02-23T10:50:32;25.70;26.50
75500;DHT22;64076;51.466;7.260;2024-02-23T10:53:03;25.70;26.50
75500;DHT22;64076;51.466;7.260;2024-02-23T10:55:31;25.70;26.50
75500;DHT22;64076;51.466;7.260;2024-02-23T10:57:58;25.70;26.50
75500;DHT22;64076;51.466;7.260;2024-02-23T11:00:24;25.70;26.40
75500;DHT22;64076;51.466;7.260;2024-02-23T11:02:52;25.70;26.40
75500;DHT22;64076;51.466;7.260;2024-02-23T11:05:19;25.70;26.40
75500;DHT22;64076;51.466;7.260;2024-02-23T11:07:47;25.70;26.40
75500;DHT22;64076;51.466;7.260;2024-02-23T11:10:17;25.70;26.40
75500;DHT22;64076;51.466;7.260;2024-02-23T11:12:43;25.70;26.40
75500;DHT22;64076;51.466;7.260;2024-02-23T11:15:09;25.70;26.30
75500;DHT22;64076;51.466;7.260;2024-02-23T11:17:36;25.70;26.30
75500;DHT22;64076;51.466;7.260;2024-02-23T11:20:03;25.70;26.30
75500;DHT22;64076;51.466;7.260;2024-02-23T11:22:33;25.70;26.30
75500;DHT22;64076;51.466;7.260;2024-02-23T11:25:04;25.70;26.30
75500;DHT22;64076;51.466;7.260;2024-02-23T11:27:39;25.70;26.30
75500;DHT22;64076;51.466;7.260;2024-02-23T11:30:08;25.70;26.30
75500;DHT22;64076;51.466;7.260;2024-02-23T11:32:46;25.70;26.20
75500;DHT22;64076;51.466;7.260;2024-02-23T11:35:19;25.70;26.20
75500;DHT22;64076;51.466;7.260;2024-02-23T11:37:57;25.70;26.20
75500;DHT22;64076;51.466;7.260;2024-02-23T11:40:27;25.70;26.10
75500;DHT22;64076;51.466;7.260;2024-02-23T11:42:54;25.70;26.20
75500;DHT22;64076;51.466;7.260;2024-02-23T11:45:24;25.70;26.20
75500;DHT22;64076;51.466;7.260;2024-02-23T11:47:50;25.70;26.20
75500;DHT22;64076;51.466;7.260;2024-02-23T11:50:16;25.70;26.20
75500;DHT22;64076;51.466;7.260;2024-02-23T11:52:45;25.70;26.20
75500;DHT22;64076;51.466;7.260;2024-02-23T11:55:10;25.70;26.20
75500;DHT22;64076;51.466;7.260;2024-02-23T11:57:36;25.70;26.20
75500;DHT22;64076;51.466;7.260;2024-02-23T12:00:06;25.70;26.20
75500;DHT22;64076;51.466;7.260;2024-02-23T12:02:34;25.70;26.20
75500;DHT22;64076;51.466;7.260;2024-02-23T12:05:00;25.70;26.30
75500;DHT22;64076;51.466;7.260;2024-02-23T12:07:25;25.70;26.30
75500;DHT22;64076;51.466;7.260;2024-02-23T12:09:54;25.70;26.30
75500;DHT22;64076;51.466;7.260;2024-02-23T12:12:20;25.70;26.40
75500;DHT22;64076;51.466;7.260;2024-02-23T12:14:46;25.70;26.50
75500;DHT22;64076;51.466;7.260;2024-02-23T12:17:12;25.70;26.50
75500;DHT22;64076;51.466;7.260;2024-02-23T12:19:41;25.70;26.40
75500;DHT22;64076;51.466;7.260;2024-02-23T12:22:07;25.70;26.50
75500;DHT22;64076;51.466;7.260;2024-02-23T12:24:34;25.70;26.50
75500;DHT22;64076;51.466;7.260;2024-02-23T12:27:00;25.70;26.50
75500;DHT22;64076;51.466;7.260;2024-02-23T12:29:25;25.70;26.60
75500;DHT22;64076;51.466;7.260;2024-02-23T12:32:02;25.70;26.50
75500;DHT22;64076;51.466;7.260;2024-02-23T12:34:28;25.70;26.60
75500;DHT22;64076;51.466;7.260;2024-02-23T12:36:55;25.70;26.70
75500;DHT22;64076;51.466;7.260;2024-02-23T12:39:21;25.70;26.60
75500;DHT22;64076;51.466;7.260;2024-02-23T12:41:46;25.70;26.60
75500;DHT22;64076;51.466;7.260;2024-02-23T12:44:12;25.70;26.60
75500;DHT22;64076;51.466;7.260;2024-02-23T12:46:37;25.70;26.50
75500;DHT22;64076;51.466;7.260;2024-02-23T12:49:03;25.70;26.60
75500;DHT22;64076;51.466;7.260;2024-02-23T12:51:29;25.70;26.60
75500;DHT22;64076;51.466;7.260;2024-02-23T12:53:54;25.70;26.60
75500;DHT22;64076;51.466;7.260;2024-02-23T12:56:20;25.70;26.50
75500;DHT22;64076;51.466;7.260;2024-02-23T12:58:46;25.60;26.60
75500;DHT22;64076;51.466;7.260;2024-02-23T13:01:11;25.70;26.50
75500;DHT22;64076;51.466;7.260;2024-02-23T13:03:38;25.70;26.50
75500;DHT22;64076;51.466;7.260;2024-02-23T13:06:06;25.70;26.50
75500;DHT22;64076;51.466;7.260;2024-02-23T13:08:32;25.70;26.50
75500;DHT22;64076;51.466;7.260;2024-02-23T13:10:58;25.70;26.50
75500;DHT22;64076;51.466;7.260;2024-02-23T13:13:24;25.70;26.60
75500;DHT22;64076;51.466;7.260;2024-02-23T13:15:51;25.70;26.50
75500;DHT22;64076;51.466;7.260;2024-02-23T13:18:16;25.70;26.50
75500;DHT22;64076;51.466;7.260;2024-02-23T13:20:42;25.70;26.50
75500;DHT22;64076;51.466;7.260;2024-02-23T13:23:09;25.70;26.50
75500;DHT22;64076;51.466;7.260;2024-02-23T13:25:39;25.70;26.50
75500;DHT22;64076;51.466;7.260;2024-02-23T13:28:05;25.70;26.50
75500;DHT22;64076;51.466;7.260;2024-02-23T13:30:32;25.70;26.50
75500;DHT22;64076;51.466;7.260;2024-02-23T13:32:57;25.70;26.50
75500;DHT22;64076;51.466;7.260;2024-02-23T13:35:23;25.70;26.50
75500;DHT22;64076;51.466;7.260;2024-02-23T13:37:49;25.70;26.60
75500;DHT22;64076;51.466;7.260;2024-02-23T13:40:15;25.70;26.60
75500;DHT22;64076;51.466;7.260;2024-02-23T13:42:40;25.70;26.70
75500;DHT22;64076;51.466;7.260;2024-02-23T13:45:07;25.70;26.70
75500;DHT22;64076;51.466;7.260;2024-02-23T13:47:33;25.70;26.80
75500;DHT22;64076;51.466;7.260;2024-02-23T13:49:59;25.70;26.90
75500;DHT22;64076;51.466;7.260;2024-02-23T13:52:24;25.70;26.90
75500;DHT22;64076;51.466;7.260;2024-02-23T13:54:50;25.70;26.90
75500;DHT22;64076;51.466;7.260;2024-02-23T13:57:16;25.70;27.00
75500;DHT22;64076;51.466;7.260;2024-02-23T13:59:41;25.70;26.90
75500;DHT22;64076;51.466;7.260;2024-02-23T14:02:07;25.70;27.00
75500;DHT22;64076;51.466;7.260;2024-02-23T14:04:33;25.70;27.00
75500;DHT22;64076;51.466;7.260;2024-02-23T14:06:58;25.70;27.00
75500;DHT22;64076;51.466;7.260;2024-02-23T14:09:24;25.80;27.00
75500;DHT22;64076;51.466;7.260;2024-02-23T14:11:50;25.80;27.00
75500;DHT22;64076;51.466;7.260;2024-02-23T14:14:15;25.80;27.00
75500;DHT22;64076;51.466;7.260;2024-02-23T14:16:41;25.80;27.00
75500;DHT22;64076;51.466;7.260;2024-02-23T14:19:07;25.90;27.00
75500;DHT22;64076;51.466;7.260;2024-02-23T14:21:33;25.90;27.00
75500;DHT22;64076;51.466;7.260;2024-02-23T14:24:02;25.90;26.90
75500;DHT22;64076;51.466;7.260;2024-02-23T14:26:29;25.90;26.80
75500;DHT22;64076;51.466;7.260;2024-02-23T14:28:54;25.90;26.90
75500;DHT22;64076;51.466;7.260;2024-02-23T14:31:20;25.90;26.90
75500;DHT22;64076;51.466;7.260;2024-02-23T14:33:46;25.90;26.80
75500;DHT22;64076;51.466;7.260;2024-02-23T14:36:11;25.90;26.80
75500;DHT22;64076;51.466;7.260;2024-02-23T14:38:37;25.90;26.80
75500;DHT22;64076;51.466;7.260;2024-02-23T14:41:02;26.00;26.80
75500;DHT22;64076;51.466;7.260;2024-02-23T14:43:28;25.90;26.90
75500;DHT22;64076;51.466;7.260;2024-02-23T14:45:57;26.00;26.80
75500;DHT22;64076;51.466;7.260;2024-02-23T14:48:22;26.00;26.80
75500;DHT22;64076;51.466;7.260;2024-02-23T14:50:48;26.00;26.70
75500;DHT22;64076;51.466;7.260;2024-02-23T14:53:15;26.00;26.60
75500;DHT22;64076;51.466;7.260;2024-02-23T14:55:40;26.00;26.70
75500;DHT22;64076;51.466;7.260;2024-02-23T15:00:32;26.00;26.70
75500;DHT22;64076;51.466;7.260;2024-02-23T15:02:58;26.00;26.90
75500;DHT22;64076;51.466;7.260;2024-02-23T15:05:24;26.00;27.00
75500;DHT22;64076;51.466;7.260;2024-02-23T15:07:52;26.00;27.00
75500;DHT22;64076;51.466;7.260;2024-02-23T15:10:18;26.00;27.00
75500;DHT22;64076;51.466;7.260;2024-02-23T15:12:43;26.00;27.00
75500;DHT22;64076;51.466;7.260;2024-02-23T15:15:10;26.00;27.10
75500;DHT22;64076;51.466;7.260;2024-02-23T15:17:35;26.00;27.20
75500;DHT22;64076;51.466;7.260;2024-02-23T15:20:01;26.00;27.20
75500;DHT22;64076;51.466;7.260;2024-02-23T15:22:27;26.00;27.30
75500;DHT22;64076;51.466;7.260;2024-02-23T15:24:54;26.00;27.30
75500;DHT22;64076;51.466;7.260;2024-02-23T15:27:19;26.00;27.40